sensor_id;sensor_type;location;lat;lon;timestamp;P1;durP1;ratioP1;P2;durP2;ratioP2
27025;SDS011;14565;48.626;8.978;2023-06-26T00:00:02;8.70;;;6.72;;
27025;SDS011;14565;48.626;8.978;2023-06-26T00:02:30;9.30;;;6.85;;
27025;SDS011;14565;48.626;8.978;2023-06-26T00:04:58;9.98;;;7.35;;
27025;SDS011;14565;48.626;8.978;2023-06-26T00:07:27;9.70;;;7.40;;
27025;SDS011;14565;48.626;8.978;2023-06-26T00:09:54;9.10;;;7.35;;
27025;SDS011;14565;48.626;8.978;2023-06-26T00:12:20;9.23;;;7.78;;
27025;SDS011;14565;48.626;8.978;2023-06-26T00:14:46;9.13;;;7.10;;
27025;SDS011;14565;48.626;8.978;2023-06-26T00:17:11;11.52;;;7.90;;
27025;SDS011;14565;48.626;8.978;2023-06-26T00:19:37;11.68;;;8.10;;
27025;SDS011;14565;48.626;8.978;2023-06-26T00:22:03;8.25;;;6.80;;
27025;SDS011;14565;48.626;8.978;2023-06-26T00:24:28;8.98;;;7.10;;
27025;SDS011;14565;48.626;8.978;2023-06-26T00:26:54;9.30;;;6.80;;
27025;SDS011;14565;48.626;8.978;2023-06-26T00:29:20;8.98;;;6.97;;
27025;SDS011;14565;48.626;8.978;2023-06-26T00:31:45;11.57;;;6.68;;
27025;SDS011;14565;48.626;8.978;2023-06-26T00:34:11;9.10;;;6.75;;
27025;SDS011;14565;48.626;8.978;2023-06-26T00:36:36;9.85;;;7.18;;
27025;SDS011;14565;48.626;8.978;2023-06-26T00:39:02;9.85;;;7.57;;
27025;SDS011;14565;48.626;8.978;2023-06-26T00:41:28;9.88;;;7.40;;
27025;SDS011;14565;48.626;8.978;2023-06-26T00:43:54;8.93;;;7.07;;
27025;SDS011;14565;48.626;8.978;2023-06-26T00:46:21;8.75;;;6.75;;
27025;SDS011;14565;48.626;8.978;2023-06-26T00:48:49;12.32;;;6.88;;
27025;SDS011;14565;48.626;8.978;2023-06-26T00:51:14;8.15;;;6.40;;
27025;SDS011;14565;48.626;8.978;2023-06-26T00:53:41;8.38;;;6.95;;
27025;SDS011;14565;48.626;8.978;2023-06-26T00:56:07;8.57;;;6.82;;
27025;SDS011;14565;48.626;8.978;2023-06-26T00:58:33;8.20;;;6.28;;
27025;SDS011;14565;48.626;8.978;2023-06-26T01:00:59;7.82;;;6.15;;
27025;SDS011;14565;48.626;8.978;2023-06-26T01:03:25;8.90;;;7.07;;
27025;SDS011;14565;48.626;8.978;2023-06-26T01:05:52;9.75;;;7.28;;
27025;SDS011;14565;48.626;8.978;2023-06-26T01:10:45;8.00;;;6.70;;
27025;SDS011;14565;48.626;8.978;2023-06-26T01:13:12;10.02;;;6.40;;
27025;SDS011;14565;48.626;8.978;2023-06-26T01:15:40;9.90;;;6.87;;
27025;SDS011;14565;48.626;8.978;2023-06-26T01:18:06;8.43;;;6.75;;
27025;SDS011;14565;48.626;8.978;2023-06-26T01:20:37;7.75;;;6.13;;
27025;SDS011;14565;48.626;8.978;2023-06-26T01:23:12;9.18;;;6.60;;
27025;SDS011;14565;48.626;8.978;2023-06-26T01:28:45;9.65;;;7.22;;
27025;SDS011;14565;48.626;8.978;2023-06-26T01:31:11;8.18;;;6.22;;
27025;SDS011;14565;48.626;8.978;2023-06-26T01:33:37;8.75;;;6.90;;
27025;SDS011;14565;48.626;8.978;2023-06-26T01:36:03;7.75;;;6.53;;
27025;SDS011;14565;48.626;8.978;2023-06-26T01:38:29;9.70;;;6.72;;
27025;SDS011;14565;48.626;8.978;2023-06-26T01:40:55;8.50;;;6.38;;
27025;SDS011;14565;48.626;8.978;2023-06-26T01:43:30;10.73;;;6.47;;
27025;SDS011;14565;48.626;8.978;2023-06-26T01:51:23;11.32;;;7.10;;
27025;SDS011;14565;48.626;8.978;2023-06-26T01:53:55;9.32;;;6.70;;
27025;SDS011;14565;48.626;8.978;2023-06-26T01:56:23;9.13;;;6.55;;
27025;SDS011;14565;48.626;8.978;2023-06-26T01:58:50;9.65;;;6.78;;
27025;SDS011;14565;48.626;8.978;2023-06-26T02:01:20;10.07;;;6.40;;
27025;SDS011;14565;48.626;8.978;2023-06-26T02:03:47;8.88;;;6.57;;
27025;SDS011;14565;48.626;8.978;2023-06-26T02:06:13;8.27;;;6.68;;
27025;SDS011;14565;48.626;8.978;2023-06-26T02:08:39;9.25;;;6.45;;
27025;SDS011;14565;48.626;8.978;2023-06-26T02:11:05;7.38;;;6.13;;
27025;SDS011;14565;48.626;8.978;2023-06-26T02:13:30;8.30;;;6.63;;
27025;SDS011;14565;48.626;8.978;2023-06-26T02:15:56;9.70;;;6.78;;
27025;SDS011;14565;48.626;8.978;2023-06-26T02:18:22;8.95;;;6.40;;
27025;SDS011;14565;48.626;8.978;2023-06-26T02:20:48;8.45;;;6.82;;
27025;SDS011;14565;48.626;8.978;2023-06-26T02:23:14;8.85;;;6.47;;
27025;SDS011;14565;48.626;8.978;2023-06-26T02:25:39;9.02;;;7.20;;
27025;SDS011;14565;48.626;8.978;2023-06-26T02:28:05;9.07;;;7.03;;
27025;SDS011;14565;48.626;8.978;2023-06-26T02:30:31;9.93;;;7.03;;
27025;SDS011;14565;48.626;8.978;2023-06-26T02:32:56;7.95;;;6.65;;
27025;SDS011;14565;48.626;8.978;2023-06-26T02:35:22;9.80;;;6.60;;
27025;SDS011;14565;48.626;8.978;2023-06-26T02:37:47;8.40;;;6.45;;
27025;SDS011;14565;48.626;8.978;2023-06-26T02:40:13;9.52;;;6.78;;
27025;SDS011;14565;48.626;8.978;2023-06-26T02:42:39;11.65;;;7.15;;
27025;SDS011;14565;48.626;8.978;2023-06-26T02:45:04;9.40;;;6.72;;
27025;SDS011;14565;48.626;8.978;2023-06-26T02:47:30;8.80;;;6.70;;
27025;SDS011;14565;48.626;8.978;2023-06-26T02:49:56;7.82;;;6.85;;
27025;SDS011;14565;48.626;8.978;2023-06-26T02:52:21;7.85;;;6.20;;
27025;SDS011;14565;48.626;8.978;2023-06-26T02:54:47;8.30;;;6.75;;
27025;SDS011;14565;48.626;8.978;2023-06-26T02:57:13;10.02;;;6.85;;
27025;SDS011;14565;48.626;8.978;2023-06-26T02:59:39;10.32;;;6.78;;
27025;SDS011;14565;48.626;8.978;2023-06-26T03:02:05;9.00;;;6.53;;
27025;SDS011;14565;48.626;8.978;2023-06-26T03:04:30;8.73;;;6.82;;
27025;SDS011;14565;48.626;8.978;2023-06-26T03:06:56;8.32;;;6.63;;
27025;SDS011;14565;48.626;8.978;2023-06-26T03:09:22;16.15;;;7.45;;
27025;SDS011;14565;48.626;8.978;2023-06-26T03:11:47;8.93;;;6.53;;
27025;SDS011;14565;48.626;8.978;2023-06-26T03:14:13;8.48;;;6.10;;
27025;SDS011;14565;48.626;8.978;2023-06-26T03:16:39;8.40;;;6.65;;
27025;SDS011;14565;48.626;8.978;2023-06-26T03:19:05;8.43;;;6.78;;
27025;SDS011;14565;48.626;8.978;2023-06-26T03:21:31;8.23;;;6.65;;
27025;SDS011;14565;48.626;8.978;2023-06-26T03:23:57;8.57;;;5.95;;
27025;SDS011;14565;48.626;8.978;2023-06-26T03:26:23;7.80;;;6.57;;
27025;SDS011;14565;48.626;8.978;2023-06-26T03:28:52;8.27;;;6.55;;
27025;SDS011;14565;48.626;8.978;2023-06-26T03:31:18;8.57;;;6.15;;
27025;SDS011;14565;48.626;8.978;2023-06-26T03:33:44;7.53;;;6.35;;
27025;SDS011;14565;48.626;8.978;2023-06-26T03:36:10;8.90;;;6.53;;
27025;SDS011;14565;48.626;8.978;2023-06-26T03:38:36;8.82;;;6.68;;
27025;SDS011;14565;48.626;8.978;2023-06-26T03:41:01;7.68;;;6.63;;
27025;SDS011;14565;48.626;8.978;2023-06-26T03:43:27;11.45;;;6.70;;
27025;SDS011;14565;48.626;8.978;2023-06-26T03:45:53;10.10;;;6.22;;
27025;SDS011;14565;48.626;8.978;2023-06-26T03:48:19;8.55;;;6.90;;
27025;SDS011;14565;48.626;8.978;2023-06-26T03:50:45;7.90;;;6.70;;
27025;SDS011;14565;48.626;8.978;2023-06-26T03:53:10;9.05;;;6.43;;
27025;SDS011;14565;48.626;8.978;2023-06-26T03:55:36;9.93;;;6.45;;
27025;SDS011;14565;48.626;8.978;2023-06-26T03:58:03;9.57;;;6.57;;
27025;SDS011;14565;48.626;8.978;2023-06-26T04:00:29;7.85;;;6.25;;
27025;SDS011;14565;48.626;8.978;2023-06-26T04:02:55;7.75;;;6.10;;
27025;SDS011;14565;48.626;8.978;2023-06-26T04:05:21;9.07;;;6.93;;
27025;SDS011;14565;48.626;8.978;2023-06-26T04:07:49;15.00;;;7.03;;
27025;SDS011;14565;48.626;8.978;2023-06-26T04:10:16;8.32;;;6.22;;
27025;SDS011;14565;48.626;8.978;2023-06-26T04:12:41;7.80;;;5.97;;
27025;SDS011;14565;48.626;8.978;2023-06-26T04:15:07;9.40;;;6.28;;
27025;SDS011;14565;48.626;8.978;2023-06-26T04:17:33;8.25;;;6.93;;
27025;SDS011;14565;48.626;8.978;2023-06-26T04:19:59;8.30;;;6.65;;
27025;SDS011;14565;48.626;8.978;2023-06-26T04:22:25;9.90;;;6.68;;
27025;SDS011;14565;48.626;8.978;2023-06-26T04:24:50;10.25;;;7.00;;
27025;SDS011;14565;48.626;8.978;2023-06-26T04:27:17;9.43;;;6.97;;
27025;SDS011;14565;48.626;8.978;2023-06-26T04:29:43;8.32;;;6.65;;
27025;SDS011;14565;48.626;8.978;2023-06-26T04:32:08;11.50;;;7.05;;
27025;SDS011;14565;48.626;8.978;2023-06-26T04:34:34;12.85;;;7.03;;
27025;SDS011;14565;48.626;8.978;2023-06-26T04:37:01;10.02;;;7.15;;
27025;SDS011;14565;48.626;8.978;2023-06-26T04:39:28;8.75;;;6.50;;
27025;SDS011;14565;48.626;8.978;2023-06-26T04:41:55;9.77;;;6.95;;
27025;SDS011;14565;48.626;8.978;2023-06-26T04:44:21;10.98;;;6.70;;
27025;SDS011;14565;48.626;8.978;2023-06-26T04:46:46;7.65;;;6.28;;
27025;SDS011;14565;48.626;8.978;2023-06-26T04:49:12;7.13;;;6.35;;
27025;SDS011;14565;48.626;8.978;2023-06-26T04:51:38;8.52;;;6.03;;
27025;SDS011;14565;48.626;8.978;2023-06-26T04:54:08;7.43;;;6.50;;
27025;SDS011;14565;48.626;8.978;2023-06-26T04:56:35;11.30;;;6.95;;
27025;SDS011;14565;48.626;8.978;2023-06-26T04:59:02;13.43;;;7.15;;
27025;SDS011;14565;48.626;8.978;2023-06-26T05:01:28;9.45;;;6.43;;
27025;SDS011;14565;48.626;8.978;2023-06-26T05:03:58;7.93;;;6.53;;
27025;SDS011;14565;48.626;8.978;2023-06-26T05:06:24;8.07;;;6.13;;
27025;SDS011;14565;48.626;8.978;2023-06-26T05:08:49;12.43;;;6.80;;
27025;SDS011;14565;48.626;8.978;2023-06-26T05:11:15;7.93;;;6.40;;
27025;SDS011;14565;48.626;8.978;2023-06-26T05:13:41;8.70;;;6.40;;
27025;SDS011;14565;48.626;8.978;2023-06-26T05:16:08;8.70;;;6.45;;
27025;SDS011;14565;48.626;8.978;2023-06-26T05:18:34;8.60;;;5.88;;
27025;SDS011;14565;48.626;8.978;2023-06-26T05:21:02;10.00;;;6.47;;
27025;SDS011;14565;48.626;8.978;2023-06-26T05:23:30;10.23;;;6.60;;
27025;SDS011;14565;48.626;8.978;2023-06-26T05:25:57;12.18;;;6.70;;
27025;SDS011;14565;48.626;8.978;2023-06-26T05:28:23;10.25;;;6.90;;
27025;SDS011;14565;48.626;8.978;2023-06-26T05:30:52;10.20;;;6.35;;
27025;SDS011;14565;48.626;8.978;2023-06-26T05:33:23;8.02;;;6.18;;
27025;SDS011;14565;48.626;8.978;2023-06-26T05:38:19;9.18;;;6.22;;
27025;SDS011;14565;48.626;8.978;2023-06-26T05:40:45;11.38;;;6.72;;
27025;SDS011;14565;48.626;8.978;2023-06-26T05:43:11;7.13;;;6.18;;
27025;SDS011;14565;48.626;8.978;2023-06-26T05:45:40;16.10;;;6.43;;
27025;SDS011;14565;48.626;8.978;2023-06-26T05:48:06;9.30;;;6.22;;
27025;SDS011;14565;48.626;8.978;2023-06-26T05:50:32;7.88;;;5.75;;
27025;SDS011;14565;48.626;8.978;2023-06-26T05:52:58;10.93;;;5.88;;
27025;SDS011;14565;48.626;8.978;2023-06-26T05:55:26;7.72;;;5.50;;
27025;SDS011;14565;48.626;8.978;2023-06-26T05:57:52;7.28;;;5.43;;
27025;SDS011;14565;48.626;8.978;2023-06-26T06:00:22;5.65;;;5.07;;
27025;SDS011;14565;48.626;8.978;2023-06-26T06:02:48;14.82;;;5.95;;
27025;SDS011;14565;48.626;8.978;2023-06-26T06:05:14;7.13;;;5.55;;
27025;SDS011;14565;48.626;8.978;2023-06-26T06:07:40;8.03;;;5.60;;
27025;SDS011;14565;48.626;8.978;2023-06-26T06:10:05;13.37;;;6.13;;
27025;SDS011;14565;48.626;8.978;2023-06-26T06:12:31;11.00;;;5.93;;
27025;SDS011;14565;48.626;8.978;2023-06-26T06:14:57;7.83;;;5.73;;
27025;SDS011;14565;48.626;8.978;2023-06-26T06:17:24;11.98;;;5.68;;
27025;SDS011;14565;48.626;8.978;2023-06-26T06:19:50;5.82;;;5.20;;
27025;SDS011;14565;48.626;8.978;2023-06-26T06:22:16;208.60;;;13.67;;
27025;SDS011;14565;48.626;8.978;2023-06-26T06:24:42;11.23;;;5.22;;
27025;SDS011;14565;48.626;8.978;2023-06-26T06:27:09;7.07;;;5.35;;
27025;SDS011;14565;48.626;8.978;2023-06-26T06:29:35;6.05;;;5.30;;
27025;SDS011;14565;48.626;8.978;2023-06-26T06:32:01;7.17;;;4.90;;
27025;SDS011;14565;48.626;8.978;2023-06-26T06:34:27;6.57;;;5.45;;
27025;SDS011;14565;48.626;8.978;2023-06-26T06:36:53;6.77;;;5.20;;
27025;SDS011;14565;48.626;8.978;2023-06-26T06:39:18;8.53;;;5.20;;
27025;SDS011;14565;48.626;8.978;2023-06-26T06:41:44;9.50;;;5.00;;
27025;SDS011;14565;48.626;8.978;2023-06-26T06:44:10;7.80;;;4.80;;
27025;SDS011;14565;48.626;8.978;2023-06-26T06:46:35;7.60;;;4.87;;
27025;SDS011;14565;48.626;8.978;2023-06-26T06:49:01;7.30;;;4.90;;
27025;SDS011;14565;48.626;8.978;2023-06-26T06:51:28;8.43;;;5.50;;
27025;SDS011;14565;48.626;8.978;2023-06-26T06:53:54;10.75;;;4.82;;
27025;SDS011;14565;48.626;8.978;2023-06-26T06:56:20;8.45;;;4.95;;
27025;SDS011;14565;48.626;8.978;2023-06-26T06:58:47;7.05;;;5.32;;
27025;SDS011;14565;48.626;8.978;2023-06-26T07:01:13;8.23;;;5.20;;
27025;SDS011;14565;48.626;8.978;2023-06-26T07:03:39;14.73;;;5.93;;
27025;SDS011;14565;48.626;8.978;2023-06-26T07:06:05;7.95;;;5.30;;
27025;SDS011;14565;48.626;8.978;2023-06-26T07:08:30;6.60;;;5.20;;
27025;SDS011;14565;48.626;8.978;2023-06-26T07:10:56;15.77;;;5.33;;
27025;SDS011;14565;48.626;8.978;2023-06-26T07:15:49;6.35;;;5.38;;
27025;SDS011;14565;48.626;8.978;2023-06-26T07:18:14;15.07;;;5.17;;
27025;SDS011;14565;48.626;8.978;2023-06-26T07:20:40;8.43;;;5.37;;
27025;SDS011;14565;48.626;8.978;2023-06-26T07:23:06;6.43;;;5.47;;
27025;SDS011;14565;48.626;8.978;2023-06-26T07:27:58;20.30;;;6.13;;
27025;SDS011;14565;48.626;8.978;2023-06-26T07:30:26;8.10;;;5.28;;
27025;SDS011;14565;48.626;8.978;2023-06-26T07:32:52;8.07;;;5.50;;
27025;SDS011;14565;48.626;8.978;2023-06-26T07:35:18;11.38;;;5.20;;
27025;SDS011;14565;48.626;8.978;2023-06-26T07:37:44;9.37;;;4.77;;
27025;SDS011;14565;48.626;8.978;2023-06-26T07:40:11;10.30;;;5.13;;
27025;SDS011;14565;48.626;8.978;2023-06-26T07:42:37;6.82;;;5.38;;
27025;SDS011;14565;48.626;8.978;2023-06-26T07:45:04;6.55;;;5.88;;
27025;SDS011;14565;48.626;8.978;2023-06-26T07:47:35;6.68;;;5.38;;
27025;SDS011;14565;48.626;8.978;2023-06-26T07:50:02;11.38;;;5.47;;
27025;SDS011;14565;48.626;8.978;2023-06-26T07:52:28;6.57;;;5.10;;
27025;SDS011;14565;48.626;8.978;2023-06-26T07:54:55;6.72;;;5.03;;
27025;SDS011;14565;48.626;8.978;2023-06-26T07:57:21;7.07;;;5.25;;
27025;SDS011;14565;48.626;8.978;2023-06-26T07:59:47;12.15;;;5.55;;
27025;SDS011;14565;48.626;8.978;2023-06-26T08:02:12;8.75;;;5.13;;
27025;SDS011;14565;48.626;8.978;2023-06-26T08:04:39;5.60;;;5.00;;
27025;SDS011;14565;48.626;8.978;2023-06-26T08:07:04;8.38;;;5.65;;
27025;SDS011;14565;48.626;8.978;2023-06-26T08:09:30;5.65;;;5.05;;
27025;SDS011;14565;48.626;8.978;2023-06-26T08:11:57;11.52;;;5.55;;
27025;SDS011;14565;48.626;8.978;2023-06-26T08:14:23;6.25;;;4.60;;
27025;SDS011;14565;48.626;8.978;2023-06-26T08:16:49;12.27;;;5.90;;
27025;SDS011;14565;48.626;8.978;2023-06-26T08:19:16;5.80;;;4.97;;
27025;SDS011;14565;48.626;8.978;2023-06-26T08:21:43;5.47;;;4.90;;
27025;SDS011;14565;48.626;8.978;2023-06-26T08:24:09;8.90;;;5.13;;
27025;SDS011;14565;48.626;8.978;2023-06-26T08:26:35;5.03;;;4.53;;
27025;SDS011;14565;48.626;8.978;2023-06-26T08:29:02;6.75;;;5.10;;
27025;SDS011;14565;48.626;8.978;2023-06-26T08:31:36;7.95;;;4.80;;
27025;SDS011;14565;48.626;8.978;2023-06-26T08:34:02;6.93;;;4.90;;
27025;SDS011;14565;48.626;8.978;2023-06-26T08:36:29;6.47;;;4.90;;
27025;SDS011;14565;48.626;8.978;2023-06-26T08:38:55;7.90;;;4.80;;
27025;SDS011;14565;48.626;8.978;2023-06-26T08:41:20;6.32;;;4.88;;
27025;SDS011;14565;48.626;8.978;2023-06-26T08:43:46;6.53;;;4.82;;
27025;SDS011;14565;48.626;8.978;2023-06-26T08:46:13;5.20;;;4.70;;
27025;SDS011;14565;48.626;8.978;2023-06-26T08:48:40;13.35;;;5.35;;
27025;SDS011;14565;48.626;8.978;2023-06-26T08:51:13;5.65;;;4.40;;
27025;SDS011;14565;48.626;8.978;2023-06-26T08:53:47;6.57;;;4.82;;
27025;SDS011;14565;48.626;8.978;2023-06-26T08:56:14;9.43;;;5.10;;
27025;SDS011;14565;48.626;8.978;2023-06-26T08:58:43;7.38;;;5.07;;
27025;SDS011;14565;48.626;8.978;2023-06-26T09:01:10;8.68;;;5.28;;
27025;SDS011;14565;48.626;8.978;2023-06-26T09:03:37;5.15;;;4.65;;
27025;SDS011;14565;48.626;8.978;2023-06-26T09:06:04;6.07;;;4.80;;
27025;SDS011;14565;48.626;8.978;2023-06-26T09:08:29;8.23;;;4.85;;
27025;SDS011;14565;48.626;8.978;2023-06-26T09:10:55;6.00;;;5.05;;
27025;SDS011;14565;48.626;8.978;2023-06-26T09:13:21;7.65;;;5.32;;
27025;SDS011;14565;48.626;8.978;2023-06-26T09:15:47;7.75;;;4.88;;
27025;SDS011;14565;48.626;8.978;2023-06-26T09:18:13;12.90;;;5.28;;
27025;SDS011;14565;48.626;8.978;2023-06-26T09:20:43;11.15;;;5.15;;
27025;SDS011;14565;48.626;8.978;2023-06-26T09:23:09;6.75;;;4.78;;
27025;SDS011;14565;48.626;8.978;2023-06-26T09:25:37;5.32;;;4.63;;
27025;SDS011;14565;48.626;8.978;2023-06-26T09:28:05;9.20;;;4.90;;
27025;SDS011;14565;48.626;8.978;2023-06-26T09:30:33;6.13;;;4.97;;
27025;SDS011;14565;48.626;8.978;2023-06-26T09:33:17;6.95;;;5.07;;
27025;SDS011;14565;48.626;8.978;2023-06-26T09:35:44;6.80;;;4.70;;
27025;SDS011;14565;48.626;8.978;2023-06-26T09:38:11;8.15;;;5.80;;
27025;SDS011;14565;48.626;8.978;2023-06-26T09:40:38;28.83;;;6.78;;
27025;SDS011;14565;48.626;8.978;2023-06-26T09:43:06;5.68;;;4.88;;
27025;SDS011;14565;48.626;8.978;2023-06-26T09:45:33;8.13;;;5.30;;
27025;SDS011;14565;48.626;8.978;2023-06-26T09:48:01;6.00;;;5.38;;
27025;SDS011;14565;48.626;8.978;2023-06-26T09:50:28;10.65;;;5.05;;
27025;SDS011;14565;48.626;8.978;2023-06-26T09:52:55;6.97;;;5.28;;
27025;SDS011;14565;48.626;8.978;2023-06-26T09:55:21;6.78;;;5.38;;
27025;SDS011;14565;48.626;8.978;2023-06-26T09:57:48;8.27;;;5.65;;
27025;SDS011;14565;48.626;8.978;2023-06-26T10:00:15;7.22;;;5.22;;
27025;SDS011;14565;48.626;8.978;2023-06-26T10:02:41;11.38;;;5.20;;
27025;SDS011;14565;48.626;8.978;2023-06-26T10:05:07;6.47;;;5.07;;
27025;SDS011;14565;48.626;8.978;2023-06-26T10:07:33;11.50;;;5.50;;
27025;SDS011;14565;48.626;8.978;2023-06-26T10:10:02;7.93;;;5.20;;
27025;SDS011;14565;48.626;8.978;2023-06-26T10:12:29;7.68;;;5.40;;
27025;SDS011;14565;48.626;8.978;2023-06-26T10:14:56;9.48;;;5.28;;
27025;SDS011;14565;48.626;8.978;2023-06-26T10:17:24;7.65;;;5.65;;
27025;SDS011;14565;48.626;8.978;2023-06-26T10:19:54;8.40;;;5.63;;
27025;SDS011;14565;48.626;8.978;2023-06-26T10:22:22;8.05;;;5.45;;
27025;SDS011;14565;48.626;8.978;2023-06-26T10:24:52;8.93;;;5.80;;
27025;SDS011;14565;48.626;8.978;2023-06-26T10:27:23;11.63;;;6.10;;
27025;SDS011;14565;48.626;8.978;2023-06-26T10:29:57;8.98;;;5.95;;
27025;SDS011;14565;48.626;8.978;2023-06-26T10:32:26;8.73;;;5.63;;
27025;SDS011;14565;48.626;8.978;2023-06-26T10:34:53;11.75;;;5.82;;
27025;SDS011;14565;48.626;8.978;2023-06-26T10:37:21;9.57;;;5.68;;
27025;SDS011;14565;48.626;8.978;2023-06-26T10:40:05;7.57;;;6.13;;
27025;SDS011;14565;48.626;8.978;2023-06-26T10:42:35;12.17;;;5.97;;
27025;SDS011;14565;48.626;8.978;2023-06-26T10:45:35;8.35;;;5.93;;
27025;SDS011;14565;48.626;8.978;2023-06-26T10:47:54;7.57;;;6.20;;
27025;SDS011;14565;48.626;8.978;2023-06-26T10:50:23;7.78;;;6.25;;
27025;SDS011;14565;48.626;8.978;2023-06-26T10:56:02;11.43;;;6.57;;
27025;SDS011;14565;48.626;8.978;2023-06-26T10:58:32;9.10;;;6.55;;
27025;SDS011;14565;48.626;8.978;2023-06-26T11:03:38;17.75;;;7.43;;
27025;SDS011;14565;48.626;8.978;2023-06-26T11:06:14;8.83;;;6.67;;
27025;SDS011;14565;48.626;8.978;2023-06-26T11:08:53;10.48;;;6.30;;
27025;SDS011;14565;48.626;8.978;2023-06-26T11:16:46;9.75;;;6.97;;
27025;SDS011;14565;48.626;8.978;2023-06-26T11:19:13;9.45;;;6.95;;
27025;SDS011;14565;48.626;8.978;2023-06-26T11:21:39;7.60;;;6.63;;
27025;SDS011;14565;48.626;8.978;2023-06-26T11:24:09;7.13;;;6.40;;
27025;SDS011;14565;48.626;8.978;2023-06-26T11:29:04;15.80;;;7.05;;
27025;SDS011;14565;48.626;8.978;2023-06-26T11:31:31;7.70;;;6.53;;
27025;SDS011;14565;48.626;8.978;2023-06-26T11:34:01;16.63;;;6.70;;
27025;SDS011;14565;48.626;8.978;2023-06-26T11:36:28;11.65;;;6.43;;
27025;SDS011;14565;48.626;8.978;2023-06-26T11:38:55;9.73;;;6.88;;
27025;SDS011;14565;48.626;8.978;2023-06-26T11:41:25;15.27;;;6.40;;
27025;SDS011;14565;48.626;8.978;2023-06-26T11:44:00;9.23;;;6.43;;
27025;SDS011;14565;48.626;8.978;2023-06-26T11:46:27;9.00;;;6.40;;
27025;SDS011;14565;48.626;8.978;2023-06-26T11:48:53;7.18;;;6.47;;
27025;SDS011;14565;48.626;8.978;2023-06-26T11:51:19;8.13;;;5.93;;
27025;SDS011;14565;48.626;8.978;2023-06-26T11:53:46;10.00;;;6.53;;
27025;SDS011;14565;48.626;8.978;2023-06-26T11:56:14;14.25;;;6.55;;
27025;SDS011;14565;48.626;8.978;2023-06-26T11:58:57;8.68;;;6.50;;
27025;SDS011;14565;48.626;8.978;2023-06-26T12:01:30;6.75;;;6.15;;
27025;SDS011;14565;48.626;8.978;2023-06-26T12:03:58;10.07;;;7.05;;
27025;SDS011;14565;48.626;8.978;2023-06-26T12:06:26;7.60;;;6.55;;
27025;SDS011;14565;48.626;8.978;2023-06-26T12:08:52;8.10;;;6.22;;
27025;SDS011;14565;48.626;8.978;2023-06-26T12:11:19;12.57;;;7.00;;
27025;SDS011;14565;48.626;8.978;2023-06-26T12:13:48;8.93;;;6.25;;
27025;SDS011;14565;48.626;8.978;2023-06-26T12:16:14;8.55;;;6.05;;
27025;SDS011;14565;48.626;8.978;2023-06-26T12:18:40;7.43;;;6.55;;
27025;SDS011;14565;48.626;8.978;2023-06-26T12:21:06;8.13;;;5.90;;
27025;SDS011;14565;48.626;8.978;2023-06-26T12:23:32;8.90;;;6.32;;
27025;SDS011;14565;48.626;8.978;2023-06-26T12:26:19;9.48;;;6.38;;
27025;SDS011;14565;48.626;8.978;2023-06-26T12:28:46;9.77;;;6.15;;
27025;SDS011;14565;48.626;8.978;2023-06-26T12:31:13;8.07;;;6.35;;
27025;SDS011;14565;48.626;8.978;2023-06-26T12:33:43;7.00;;;6.22;;
27025;SDS011;14565;48.626;8.978;2023-06-26T12:36:12;10.83;;;6.53;;
27025;SDS011;14565;48.626;8.978;2023-06-26T12:38:38;14.20;;;6.22;;
27025;SDS011;14565;48.626;8.978;2023-06-26T12:41:05;12.48;;;7.18;;
27025;SDS011;14565;48.626;8.978;2023-06-26T12:43:38;12.43;;;7.03;;
27025;SDS011;14565;48.626;8.978;2023-06-26T12:46:04;7.13;;;6.05;;
27025;SDS011;14565;48.626;8.978;2023-06-26T12:48:43;8.15;;;6.78;;
27025;SDS011;14565;48.626;8.978;2023-06-26T12:51:12;7.95;;;6.43;;
27025;SDS011;14565;48.626;8.978;2023-06-26T12:53:39;7.35;;;6.65;;
27025;SDS011;14565;48.626;8.978;2023-06-26T12:56:08;8.82;;;6.45;;
27025;SDS011;14565;48.626;8.978;2023-06-26T12:58:35;8.68;;;6.10;;
27025;SDS011;14565;48.626;8.978;2023-06-26T13:01:03;10.63;;;6.85;;
27025;SDS011;14565;48.626;8.978;2023-06-26T13:03:32;8.68;;;6.85;;
27025;SDS011;14565;48.626;8.978;2023-06-26T13:05:58;10.43;;;6.75;;
27025;SDS011;14565;48.626;8.978;2023-06-26T13:08:23;8.32;;;6.53;;
27025;SDS011;14565;48.626;8.978;2023-06-26T13:10:49;11.43;;;7.28;;
27025;SDS011;14565;48.626;8.978;2023-06-26T13:13:15;11.43;;;6.07;;
27025;SDS011;14565;48.626;8.978;2023-06-26T13:15:40;15.50;;;6.25;;
27025;SDS011;14565;48.626;8.978;2023-06-26T13:18:06;14.77;;;6.43;;
27025;SDS011;14565;48.626;8.978;2023-06-26T13:20:32;12.45;;;6.53;;
27025;SDS011;14565;48.626;8.978;2023-06-26T13:22:57;9.95;;;6.57;;
27025;SDS011;14565;48.626;8.978;2023-06-26T13:25:23;8.50;;;6.03;;
27025;SDS011;14565;48.626;8.978;2023-06-26T13:27:48;16.63;;;6.60;;
27025;SDS011;14565;48.626;8.978;2023-06-26T13:30:14;9.35;;;6.30;;
27025;SDS011;14565;48.626;8.978;2023-06-26T13:32:41;11.48;;;7.20;;
27025;SDS011;14565;48.626;8.978;2023-06-26T13:35:07;10.95;;;5.80;;
27025;SDS011;14565;48.626;8.978;2023-06-26T13:37:34;9.25;;;5.78;;
27025;SDS011;14565;48.626;8.978;2023-06-26T13:40:00;12.93;;;5.68;;
27025;SDS011;14565;48.626;8.978;2023-06-26T13:42:27;10.05;;;6.07;;
27025;SDS011;14565;48.626;8.978;2023-06-26T13:44:53;11.23;;;6.00;;
27025;SDS011;14565;48.626;8.978;2023-06-26T13:47:19;8.30;;;5.70;;
27025;SDS011;14565;48.626;8.978;2023-06-26T13:49:44;7.57;;;6.03;;
27025;SDS011;14565;48.626;8.978;2023-06-26T13:52:10;11.93;;;6.18;;
27025;SDS011;14565;48.626;8.978;2023-06-26T13:54:36;7.32;;;5.88;;
27025;SDS011;14565;48.626;8.978;2023-06-26T13:57:04;8.50;;;5.55;;
27025;SDS011;14565;48.626;8.978;2023-06-26T13:59:31;7.15;;;5.63;;
27025;SDS011;14565;48.626;8.978;2023-06-26T14:01:57;13.35;;;5.80;;
27025;SDS011;14565;48.626;8.978;2023-06-26T14:04:23;10.13;;;5.80;;
27025;SDS011;14565;48.626;8.978;2023-06-26T14:06:49;8.35;;;6.25;;
27025;SDS011;14565;48.626;8.978;2023-06-26T14:09:15;7.88;;;6.32;;
27025;SDS011;14565;48.626;8.978;2023-06-26T14:11:41;13.82;;;6.00;;
27025;SDS011;14565;48.626;8.978;2023-06-26T14:14:06;8.93;;;5.32;;
27025;SDS011;14565;48.626;8.978;2023-06-26T14:16:32;7.25;;;5.70;;
27025;SDS011;14565;48.626;8.978;2023-06-26T14:18:58;8.05;;;5.47;;
27025;SDS011;14565;48.626;8.978;2023-06-26T14:21:23;9.52;;;6.28;;
27025;SDS011;14565;48.626;8.978;2023-06-26T14:23:49;10.43;;;5.68;;
27025;SDS011;14565;48.626;8.978;2023-06-26T14:26:15;7.10;;;5.63;;
27025;SDS011;14565;48.626;8.978;2023-06-26T14:28:40;7.30;;;5.50;;
27025;SDS011;14565;48.626;8.978;2023-06-26T14:31:06;6.75;;;4.95;;
27025;SDS011;14565;48.626;8.978;2023-06-26T14:33:32;8.20;;;5.00;;
27025;SDS011;14565;48.626;8.978;2023-06-26T14:35:57;10.93;;;4.88;;
27025;SDS011;14565;48.626;8.978;2023-06-26T14:38:23;7.35;;;4.22;;
27025;SDS011;14565;48.626;8.978;2023-06-26T14:40:49;9.82;;;4.78;;
27025;SDS011;14565;48.626;8.978;2023-06-26T14:43:14;13.65;;;4.68;;
27025;SDS011;14565;48.626;8.978;2023-06-26T14:45:40;7.45;;;4.55;;
27025;SDS011;14565;48.626;8.978;2023-06-26T14:48:06;8.43;;;4.32;;
27025;SDS011;14565;48.626;8.978;2023-06-26T14:50:32;4.80;;;3.50;;
27025;SDS011;14565;48.626;8.978;2023-06-26T14:52:58;11.27;;;3.95;;
27025;SDS011;14565;48.626;8.978;2023-06-26T14:55:24;5.40;;;3.10;;
27025;SDS011;14565;48.626;8.978;2023-06-26T14:57:49;12.90;;;4.07;;
27025;SDS011;14565;48.626;8.978;2023-06-26T15:00:15;6.22;;;3.75;;
27025;SDS011;14565;48.626;8.978;2023-06-26T15:02:41;5.53;;;3.85;;
27025;SDS011;14565;48.626;8.978;2023-06-26T15:05:07;5.78;;;3.75;;
27025;SDS011;14565;48.626;8.978;2023-06-26T15:07:33;6.63;;;4.05;;
27025;SDS011;14565;48.626;8.978;2023-06-26T15:09:59;4.70;;;3.58;;
27025;SDS011;14565;48.626;8.978;2023-06-26T15:12:24;9.55;;;3.80;;